Flight Track Log - Related Links

Times and Time Zones

All times are in EDT time to prevent confusion due to time zone crossing. See the TMC491 flight status page for this flight to view local times or setup timezone preferences in your user account.

Time Position Orientation Groundspeed Altitude Reporting Facility
EDT Latitude Longitude Course Direction KTS MPH feet Rate Location/Type
Mon 12:45:03 PM 26.7014 -81.7719 25° Northeast 244 281 6,300  Level Miami Center
Mon 12:46:03 PM 26.7642 -81.7678 North 231 266 8,800 2,500 Climbing Miami Center
Mon 12:47:03 PM 26.8269 -81.7611 North 225 259 11,300 2,200 Climbing Miami Center
Mon 12:48:03 PM 26.8961 -81.7569 North 225 259 13,200 1,700 Climbing Miami Center
Mon 12:49:00 PM 27.1856 -81.7896 343° North  Level FlightAware Approximate
Mon 12:49:03 PM 26.9736 -81.7486 North 253 291 14,700  Level Miami Center
Mon 12:50:03 PM 27.0589 -81.7567 355° North 283 326 16,200 1,550 Climbing Miami Center
Mon 12:51:03 PM 27.1456 -81.7861 343° North 303 349 17,800 1,650 Climbing Miami Center
Mon 12:52:03 PM 27.2342 -81.8178 342° North 321 369 19,500 1,550 Climbing Miami Center
Mon 12:53:03 PM 27.3231 -81.8475 343° North 327 376 20,900 1,350 Climbing Miami Center
Mon 12:54:03 PM 27.4139 -81.8769 344° North 327 376 22,200 1,250 Climbing Miami Center
Mon 12:55:03 PM 27.4983 -81.9089 341° North 343 395 23,400 1,150 Climbing Miami Center
Mon 12:56:03 PM 27.5953 -81.9411 344° North 354 407 24,500 1,250 Climbing Miami Center
Mon 12:57:03 PM 27.7069 -81.9697 347° North 368 423 25,900 1,120 Climbing Miami Center
Mon 12:59:32 PM 27.9656 -82.0278 349° North 366 421 28,400 976 Climbing Jacksonville Center
Mon 01:00:32 PM 28.0742 -82.0506 350° North 368 423 29,300 942 Climbing Jacksonville Center
Mon 01:01:33 PM 28.1828 -82.0731 350° North 381 438 30,300 950 Climbing Jacksonville Center
Mon 01:02:32 PM 28.2914 -82.0981 349° North 392 451 31,200 756 Climbing Jacksonville Center
Mon 01:03:32 PM 28.4000 -82.1208 350° North 392 451 31,800 550 Climbing Jacksonville Center
Mon 01:04:32 PM 28.5108 -82.1461 349° North 392 451 32,300 550 Climbing Jacksonville Center
Mon 01:05:32 PM 28.6236 -82.1689 350° North 392 451 32,900 550 Climbing Jacksonville Center
Mon 01:06:32 PM 28.7367 -82.1964 348° North 397 457 33,400 500 Climbing Jacksonville Center
Mon 01:07:32 PM 28.8536 -82.2194 350° North 407 468 33,900 500 Climbing Jacksonville Center
Mon 01:08:32 PM 28.9664 -82.2447 349° North 413 475 34,400 500 Climbing Jacksonville Center
Mon 01:09:32 PM 29.0814 -82.2700 349° North 413 475 34,900 496 Climbing Jacksonville Center
Mon 01:10:33 PM 29.1942 -82.2956 349° North 413 475 35,400 500 Climbing Jacksonville Center
Mon 01:11:32 PM 29.3092 -82.3186 350° North 413 475 35,900 555 Climbing Jacksonville Center
Mon 01:12:32 PM 29.4175 -82.3036 North 418 481 36,500 550 Climbing Jacksonville Center
Mon 01:13:32 PM 29.5344 -82.2814 North 423 487 37,000 500 Climbing Jacksonville Center
Mon 01:14:32 PM 29.6511 -82.2664 North 423 487 37,500 446 Climbing Jacksonville Center
Mon 01:15:33 PM 29.7681 -82.2608 North 423 487 37,900 397 Climbing Jacksonville Center
Mon 01:16:33 PM 29.8789 -82.2864 349° North 416 479 38,300 403 Climbing Jacksonville Center
Mon 01:17:32 PM 29.9897 -82.3122 349° North 403 464 38,700 353 Climbing Jacksonville Center
Mon 01:18:32 PM 30.1025 -82.3356 350° North 403 464 39,000 149 Climbing Jacksonville Center
Mon 01:19:33 PM 30.2111 -82.3661 346° North 403 464 39,000  Level Jacksonville Center
Mon 01:20:32 PM 30.3239 -82.3969 347° North 403 464 39,000  Level Jacksonville Center
Mon 01:21:32 PM 30.4347 -82.4253 348° North 413 475 39,000  Level Jacksonville Center
Mon 01:22:32 PM 30.5497 -82.4536 348° North 413 475 39,000  Level Jacksonville Center
Mon 01:23:32 PM 30.6647 -82.4844 347° North 413 475 39,000  Level Jacksonville Center
Mon 01:24:32 PM 30.7775 -82.5106 349° North 413 475 39,000  Level Jacksonville Center
Mon 01:25:32 PM 30.8925 -82.5414 347° North 413 475 39,000 100 Level Jacksonville Center
Mon 01:26:32 PM 31.0072 -82.5725 347° North 413 475 39,200 300 Climbing Jacksonville Center
Mon 01:27:32 PM 31.1203 -82.6039 347° North 413 475 39,600 400 Climbing Jacksonville Center
Mon 01:28:32 PM 31.2331 -82.6303 349° North 413 475 40,000 200 Climbing Jacksonville Center
Mon 01:29:32 PM 31.3519 -82.6567 349° North 404 465 40,000  Level Jacksonville Center
Mon 01:31:05 PM 31.5097 -82.6992 347° North 412 474 40,000  Level Atlanta Center
Mon 01:32:05 PM 31.6206 -82.7269 348° North 406 467 40,000  Level Atlanta Center
Mon 01:33:05 PM 31.7358 -82.7569 348° North 411 473 40,000  Level Atlanta Center
Mon 01:34:05 PM 31.8486 -82.7847 348° North 411 473 40,000  Level Atlanta Center
Mon 01:35:05 PM 31.9575 -82.8150 347° North 411 473 40,000  Level Atlanta Center
Mon 01:36:05 PM 32.0686 -82.8453 347° North 411 473 40,000  Level Atlanta Center
Mon 01:37:05 PM 32.1836 -82.8731 348° North 411 473 40,000  Level Atlanta Center
Mon 01:38:05 PM 32.2967 -82.9011 348° North 411 473 40,000  Level Atlanta Center
Mon 01:39:05 PM 32.4094 -82.9317 347° North 411 473 40,000  Level Atlanta Center
Mon 01:40:05 PM 32.5267 -82.9647 347° North 411 473 40,000  Level Atlanta Center
Mon 01:41:05 PM 32.6375 -82.9931 348° North 411 473 40,000  Level Atlanta Center
Mon 01:42:05 PM 32.7528 -83.0261 346° North 416 479 40,000  Level Atlanta Center
Mon 01:43:05 PM 32.8697 -83.0569 348° North 405 466 40,000  Level Atlanta Center
Mon 01:44:05 PM 32.9847 -83.0878 347° North 405 466 40,000  Level Atlanta Center
Mon 01:45:05 PM 33.1000 -83.1189 347° North 416 479 40,000  Level Atlanta Center
Mon 01:46:05 PM 33.2128 -83.1475 348° North 416 479 40,000  Level Atlanta Center
Mon 01:47:05 PM 33.3258 -83.1786 347° North 416 479 40,000  Level Atlanta Center
Mon 01:48:05 PM 33.4428 -83.2072 348° North 416 479 40,000  Level Atlanta Center
Mon 01:49:05 PM 33.5558 -83.2386 347° North 416 479 40,000  Level Atlanta Center
Mon 01:51:05 PM 33.7836 -83.3014 347° North 417 480 40,000  Level Atlanta Center
Mon 01:52:05 PM 33.8967 -83.3306 348° North 417 480 40,000  Level Atlanta Center
Mon 01:53:05 PM 34.0136 -83.3647 346° North 417 480 40,000  Level Atlanta Center
Mon 01:54:05 PM 34.1161 -83.3914 348° North 412 474 40,000  Level Atlanta Center
Mon 01:55:05 PM 34.2331 -83.4233 347° North 417 480 40,000  Level Atlanta Center
Mon 01:56:05 PM 34.3439 -83.4525 348° North 417 480 40,000 50 Level Atlanta Center
Mon 01:57:05 PM 34.4608 -83.4869 346° North 417 480 40,100 150 Climbing Atlanta Center
Mon 01:58:05 PM 34.5736 -83.5192 347° North 417 480 40,300 200 Climbing Atlanta Center
Mon 01:59:05 PM 34.6803 -83.5511 346° North 412 474 40,500 250 Climbing Atlanta Center
Mon 02:00:05 PM 34.7931 -83.5783 349° North 412 474 40,800 250 Climbing Atlanta Center
Mon 02:01:05 PM 34.9039 -83.6108 346° North 402 463 41,000 100 Climbing Atlanta Center
Mon 02:02:05 PM 35.0083 -83.6406 347° North 391 450 41,000  Level Atlanta Center
Mon 02:03:05 PM 35.1169 -83.6731 346° North 391 450 41,000  Level Atlanta Center
Mon 02:04:05 PM 35.2256 -83.7006 348° North 391 450 41,000  Level Atlanta Center
Mon 02:05:05 PM 35.3381 -83.7358 346° North 391 450 41,000  Level Atlanta Center
Mon 02:06:05 PM 35.4489 -83.7661 347° North 396 456 41,000  Level Atlanta Center
Mon 02:07:05 PM 35.5594 -83.7961 348° North 396 456 41,000  Level Atlanta Center
Mon 02:08:05 PM 35.6700 -83.8292 346° North 401 461 41,000  Level Atlanta Center
Mon 02:09:05 PM 35.7828 -83.8622 347° North 401 461 41,000  Level Atlanta Center
Mon 02:10:05 PM 35.8956 -83.8928 348° North 406 467 41,000  Level Atlanta Center
Mon 02:11:05 PM 36.0103 -83.9078 354° North 413 475 41,000  Level Atlanta Center
Mon 02:12:05 PM 36.1394 -83.9178 356° North 418 481 41,000  Level Atlanta Center
Mon 02:13:37 PM 36.3064 -83.9336 356° North 421 484 41,000  Level Indianapolis Center
Mon 02:14:39 PM 36.4242 -83.9461 355° North 424 488 41,000  Level Indianapolis Center
Mon 02:15:40 PM 36.5583 -83.9589 356° North 425 489 41,000  Level Indianapolis Center
Mon 02:16:42 PM 36.6781 -83.9708 355° North 428 493 41,000  Level Indianapolis Center
Mon 02:17:44 PM 36.7981 -83.9839 355° North 430 495 41,000  Level Indianapolis Center
Mon 02:18:46 PM 36.9192 -83.9961 355° North 432 497 41,000  Level Indianapolis Center
Mon 02:19:48 PM 37.0408 -84.0072 356° North 434 499 41,000  Level Indianapolis Center
Mon 02:20:50 PM 37.1617 -84.0203 355° North 434 499 41,000  Level Indianapolis Center
Mon 02:21:52 PM 37.3019 -84.0333 356° North 432 497 41,000  Level Indianapolis Center
Mon 02:22:53 PM 37.4236 -84.0456 355° North 435 501 41,000  Level Indianapolis Center
Mon 02:23:55 PM 37.5444 -84.0583 355° North 437 503 41,000  Level Indianapolis Center
Mon 02:24:57 PM 37.6650 -84.0717 355° North 433 498 41,000  Level Indianapolis Center
Mon 02:25:59 PM 37.7864 -84.0833 356° North 434 499 41,000  Level Indianapolis Center
Mon 02:27:01 PM 37.9097 -84.0953 356° North 440 506 41,000  Level Indianapolis Center
Mon 02:28:03 PM 38.0506 -84.1111 355° North 437 503 41,000  Level Indianapolis Center
Mon 02:29:04 PM 38.1742 -84.1219 356° North 445 512 41,000  Level Indianapolis Center
Mon 02:30:06 PM 38.2953 -84.1353 355° North 439 505 41,000  Level Indianapolis Center
Mon 02:31:08 PM 38.4181 -84.1481 355° North 439 505 41,000  Level Indianapolis Center
Mon 02:32:10 PM 38.5403 -84.1611 355° North 440 506 41,000  Level Indianapolis Center
Mon 02:33:12 PM 38.6694 -84.1739 356° North 439 505 41,000  Level Indianapolis Center
Mon 02:34:14 PM 38.7922 -84.1861 356° North 437 503 41,000  Level Indianapolis Center
Mon 02:35:16 PM 38.9158 -84.1992 355° North 439 505 41,000  Level Indianapolis Center
Mon 02:36:17 PM 39.0386 -84.2125 355° North 438 504 41,000  Level Indianapolis Center
Mon 02:37:19 PM 39.1628 -84.2253 355° North 441 507 41,000  Level Indianapolis Center
Mon 02:38:21 PM 39.2864 -84.2406 355° North 441 507 41,000  Level Indianapolis Center
Mon 02:39:23 PM 39.4100 -84.2536 355° North 441 507 41,000  Level Indianapolis Center
Mon 02:40:25 PM 39.5536 -84.2686 355° North 438 504 41,000  Level Indianapolis Center
Mon 02:41:26 PM 39.6775 -84.2831 355° North 440 506 41,000 -244 Level Indianapolis Center
Mon 02:42:28 PM 39.8019 -84.2956 356° North 442 509 40,500 -581 Descending Indianapolis Center
Mon 02:43:30 PM 39.9283 -84.3092 355° North 447 514 39,800 -532 Descending Indianapolis Center
Mon 02:44:32 PM 40.0494 -84.3217 355° North 438 504 39,400 -484 Descending Indianapolis Center
Mon 02:45:34 PM 40.1644 -84.3350 355° North 421 484 38,800 -629 Descending Indianapolis Center
Mon 02:46:36 PM 40.2794 -84.3486 355° North 412 474 38,100 -726 Descending Indianapolis Center
Mon 02:47:38 PM 40.3964 -84.3614 355° North 414 476 37,300 -537 Descending Indianapolis Center
Mon 02:48:39 PM 40.5147 -84.3742 355° North 418 481 37,000 -146 Descending Indianapolis Center
Mon 02:49:41 PM 40.6344 -84.3886 355° North 425 489 37,000  Level Indianapolis Center
Mon 02:50:43 PM 40.7744 -84.4036 355° North 427 491 37,000  Level Indianapolis Center
Mon 02:51:45 PM 40.8958 -84.4172 355° North 430 495 37,000  Level Indianapolis Center
Mon 02:52:25 PM 40.9758 -84.4256 356° North 421 484 37,000 -240 Level Cleveland Center
Mon 02:53:25 PM 41.0986 -84.4383 356° North 421 484 36,600 -500 Descending Cleveland Center
Mon 02:54:25 PM 41.2189 -84.4536 355° North 427 491 36,000 -300 Descending Cleveland Center
Mon 02:55:25 PM 41.3375 -84.4664 355° North 427 491 36,000  Level Cleveland Center
Mon 02:56:25 PM 41.4539 -84.4789 355° North 422 486 36,000  Level Cleveland Center
Mon 02:57:25 PM 41.5653 -84.5133 347° North 422 486 36,000 -150 Level Cleveland Center
Mon 02:58:25 PM 41.6783 -84.5564 344° North 422 486 35,700 -950 Descending Cleveland Center
Mon 02:59:25 PM 41.7875 -84.5994 344° North 417 480 34,100 -1,400 Descending Cleveland Center
Mon 03:00:25 PM 41.8914 -84.6086 356° North 394 453 32,900 -1,200 Descending Cleveland Center
Mon 03:01:25 PM 41.9989 -84.5736 14° North 376 433 31,700 -1,350 Descending Cleveland Center
Mon 03:02:25 PM 42.1050 -84.5214 20° North 381 438 30,200 -1,400 Descending Cleveland Center
Mon 03:03:25 PM 42.1942 -84.4764 20° North 386 444 28,900 -1,450 Descending Cleveland Center
Mon 03:04:25 PM 42.3053 -84.4578 North 386 444 27,300 -1,550 Descending Cleveland Center
Mon 03:05:25 PM 42.4108 -84.4842 350° North 377 434 25,800 -1,800 Descending Cleveland Center
Mon 03:06:25 PM 42.5142 -84.5044 352° North 377 434 23,700 -2,050 Descending Cleveland Center
Mon 03:07:25 PM 42.6075 -84.5244 351° North 364 419 21,700 -2,100 Descending Cleveland Center
Mon 03:08:25 PM 42.7108 -84.5453 352° North 346 398 19,500 -1,950 Descending Cleveland Center
Mon 03:09:25 PM 42.8064 -84.5625 352° North 340 391 17,800 -1,850 Descending Cleveland Center
Mon 03:10:25 PM 42.8972 -84.5853 350° North 340 391 15,800 -2,000 Descending Cleveland Center
Mon 03:11:25 PM 42.9864 -84.6025 352° North 335 386 13,800 -1,850 Descending Cleveland Center
Mon 03:12:25 PM 43.0753 -84.6225 351° North 322 371 12,100 -1,400 Descending Cleveland Center
Mon 03:13:25 PM 43.1600 -84.6394 352° North 317 365 11,000 -900 Descending Cleveland Center
Mon 03:14:25 PM 43.2450 -84.6564 352° North 311 358 10,300 -1,100 Descending Cleveland Center
Mon 03:15:25 PM 43.3236 -84.6758 350° North 295 339 8,800 -1,600 Descending Cleveland Center
Mon 03:16:25 PM 43.3897 -84.6917 350° North 279 321 7,100 -1,850 Descending Cleveland Center
Mon 03:17:25 PM 43.4622 -84.7050 352° North 267 307 5,100 -1,950 Descending Cleveland Center
Mon 03:18:25 PM 43.5317 -84.7411 339° North 249 287 3,200 -1,150 Descending Cleveland Center
Mon 03:19:25 PM 43.5781 -84.7872 324° Northwest 226 260 2,800 -700 Descending Cleveland Center
Mon 03:20:25 PM 43.6150 -84.7986 347° North 165 190 1,800 -1,000 Descending Cleveland Center
Mon 03:22:00 PM 43.6167 -84.7333 346° North  Level FlightAware Approximate
Mon 03:29:00 PM 43.6216 -84.7373 346° North  Level Estimated

Login

Don't have an account? Register now (free) for customized features, flight alerts, and more!